sensor_id;sensor_type;location;lat;lon;timestamp;pressure;altitude;pressure_sealevel;temperature;humidity
36454;BME280;22478;51.740;-1.314;2023-11-19T00:02:00;99406.54;;;5.80;100.00
36454;BME280;22478;51.740;-1.314;2023-11-19T00:04:27;99405.75;;;7.11;100.00
36454;BME280;22478;51.740;-1.314;2023-11-19T00:06:54;99406.78;;;7.90;100.00
36454;BME280;22478;51.740;-1.314;2023-11-19T00:09:21;99418.54;;;6.14;100.00
36454;BME280;22478;51.740;-1.314;2023-11-19T00:11:48;99412.20;;;7.86;100.00
36454;BME280;22478;51.740;-1.314;2023-11-19T00:14:15;99405.30;;;8.68;100.00
36454;BME280;22478;51.740;-1.314;2023-11-19T00:16:48;99415.59;;;7.69;100.00
36454;BME280;22478;51.740;-1.314;2023-11-19T00:19:15;99427.43;;;5.85;100.00
36454;BME280;22478;51.740;-1.314;2023-11-19T00:21:42;99430.68;;;5.37;100.00
36454;BME280;22478;51.740;-1.314;2023-11-19T00:24:09;99424.94;;;6.18;100.00
36454;BME280;22478;51.740;-1.314;2023-11-19T00:26:41;99429.88;;;3.93;100.00
36454;BME280;22478;51.740;-1.314;2023-11-19T00:29:13;99424.42;;;6.92;100.00
36454;BME280;22478;51.740;-1.314;2023-11-19T00:31:40;99416.49;;;6.24;100.00
36454;BME280;22478;51.740;-1.314;2023-11-19T00:34:07;99414.13;;;6.86;100.00
36454;BME280;22478;51.740;-1.314;2023-11-19T00:36:34;99420.59;;;7.65;100.00
36454;BME280;22478;51.740;-1.314;2023-11-19T00:39:02;99417.61;;;4.92;100.00
36454;BME280;22478;51.740;-1.314;2023-11-19T00:41:29;99410.15;;;5.57;100.00
36454;BME280;22478;51.740;-1.314;2023-11-19T00:43:56;99414.49;;;4.79;100.00
36454;BME280;22478;51.740;-1.314;2023-11-19T00:46:23;99404.19;;;5.41;100.00
36454;BME280;22478;51.740;-1.314;2023-11-19T00:48:49;99398.12;;;5.94;100.00
36454;BME280;22478;51.740;-1.314;2023-11-19T00:51:17;99395.09;;;6.71;100.00
36454;BME280;22478;51.740;-1.314;2023-11-19T00:53:44;99390.56;;;5.05;100.00
36454;BME280;22478;51.740;-1.314;2023-11-19T00:56:11;99387.25;;;5.57;100.00
36454;BME280;22478;51.740;-1.314;2023-11-19T00:58:38;99383.84;;;5.87;100.00
36454;BME280;22478;51.740;-1.314;2023-11-19T01:01:05;99378.02;;;4.25;100.00
36454;BME280;22478;51.740;-1.314;2023-11-19T01:03:32;99384.72;;;6.51;100.00
36454;BME280;22478;51.740;-1.314;2023-11-19T01:05:59;99367.81;;;4.79;100.00
36454;BME280;22478;51.740;-1.314;2023-11-19T01:08:26;99370.91;;;4.63;100.00
36454;BME280;22478;51.740;-1.314;2023-11-19T01:10:52;99366.05;;;5.96;100.00
36454;BME280;22478;51.740;-1.314;2023-11-19T01:13:20;99365.29;;;4.45;100.00
36454;BME280;22478;51.740;-1.314;2023-11-19T01:15:47;99370.78;;;4.49;100.00
36454;BME280;22478;51.740;-1.314;2023-11-19T01:18:14;99357.42;;;4.52;100.00
36454;BME280;22478;51.740;-1.314;2023-11-19T01:20:41;99372.41;;;4.47;100.00
36454;BME280;22478;51.740;-1.314;2023-11-19T01:23:08;99369.99;;;4.95;100.00
36454;BME280;22478;51.740;-1.314;2023-11-19T01:25:35;99375.14;;;4.91;100.00
36454;BME280;22478;51.740;-1.314;2023-11-19T01:28:02;99369.41;;;5.12;100.00
36454;BME280;22478;51.740;-1.314;2023-11-19T01:30:29;99373.47;;;4.63;100.00
36454;BME280;22478;51.740;-1.314;2023-11-19T01:32:56;99382.06;;;5.43;100.00
36454;BME280;22478;51.740;-1.314;2023-11-19T01:35:23;99368.43;;;5.46;100.00
36454;BME280;22478;51.740;-1.314;2023-11-19T01:37:50;99372.48;;;4.96;100.00
36454;BME280;22478;51.740;-1.314;2023-11-19T01:40:20;99365.44;;;5.14;100.00
36454;BME280;22478;51.740;-1.314;2023-11-19T01:42:48;99357.64;;;6.24;100.00
36454;BME280;22478;51.740;-1.314;2023-11-19T01:45:22;99361.87;;;3.85;100.00
36454;BME280;22478;51.740;-1.314;2023-11-19T01:47:54;99363.19;;;4.00;100.00
36454;BME280;22478;51.740;-1.314;2023-11-19T01:50:22;99359.38;;;5.39;100.00
36454;BME280;22478;51.740;-1.314;2023-11-19T01:52:50;99352.54;;;4.97;100.00
36454;BME280;22478;51.740;-1.314;2023-11-19T01:55:20;99369.51;;;4.23;100.00
36454;BME280;22478;51.740;-1.314;2023-11-19T01:57:48;99377.24;;;4.49;100.00
36454;BME280;22478;51.740;-1.314;2023-11-19T02:00:16;99376.42;;;5.04;100.00
36454;BME280;22478;51.740;-1.314;2023-11-19T02:02:43;99363.35;;;5.51;100.00
36454;BME280;22478;51.740;-1.314;2023-11-19T02:05:11;99366.08;;;3.89;100.00
36454;BME280;22478;51.740;-1.314;2023-11-19T02:07:39;99363.24;;;4.46;100.00
36454;BME280;22478;51.740;-1.314;2023-11-19T02:10:06;99361.55;;;4.95;100.00
36454;BME280;22478;51.740;-1.314;2023-11-19T02:12:34;99357.01;;;4.42;100.00
36454;BME280;22478;51.740;-1.314;2023-11-19T02:15:02;99358.76;;;4.70;100.00
36454;BME280;22478;51.740;-1.314;2023-11-19T02:17:31;99353.07;;;5.44;100.00
36454;BME280;22478;51.740;-1.314;2023-11-19T02:19:58;99341.38;;;5.80;100.00
36454;BME280;22478;51.740;-1.314;2023-11-19T02:22:25;99337.35;;;5.13;100.00
36454;BME280;22478;51.740;-1.314;2023-11-19T02:24:58;99346.35;;;4.37;100.00
36454;BME280;22478;51.740;-1.314;2023-11-19T02:27:31;99338.13;;;5.41;100.00
36454;BME280;22478;51.740;-1.314;2023-11-19T02:29:59;99343.85;;;4.65;100.00
36454;BME280;22478;51.740;-1.314;2023-11-19T02:32:28;99332.54;;;5.96;100.00
36454;BME280;22478;51.740;-1.314;2023-11-19T02:34:55;99339.50;;;3.90;100.00
36454;BME280;22478;51.740;-1.314;2023-11-19T02:37:22;99331.62;;;5.63;100.00
36454;BME280;22478;51.740;-1.314;2023-11-19T02:39:49;99318.85;;;5.48;100.00
36454;BME280;22478;51.740;-1.314;2023-11-19T02:42:16;99332.00;;;3.63;100.00
36454;BME280;22478;51.740;-1.314;2023-11-19T02:44:44;99324.07;;;4.91;100.00
36454;BME280;22478;51.740;-1.314;2023-11-19T02:47:11;99314.04;;;5.66;100.00
36454;BME280;22478;51.740;-1.314;2023-11-19T02:49:38;99324.49;;;5.14;100.00
36454;BME280;22478;51.740;-1.314;2023-11-19T02:52:06;99348.50;;;4.51;100.00
36454;BME280;22478;51.740;-1.314;2023-11-19T02:54:33;99356.26;;;4.05;100.00
36454;BME280;22478;51.740;-1.314;2023-11-19T02:57:00;99363.71;;;4.28;100.00
36454;BME280;22478;51.740;-1.314;2023-11-19T02:59:28;99359.52;;;2.91;100.00
36454;BME280;22478;51.740;-1.314;2023-11-19T03:01:56;99357.32;;;4.32;100.00
36454;BME280;22478;51.740;-1.314;2023-11-19T03:04:23;99353.72;;;4.33;100.00
36454;BME280;22478;51.740;-1.314;2023-11-19T03:06:50;99349.78;;;4.76;100.00
36454;BME280;22478;51.740;-1.314;2023-11-19T03:09:18;99344.24;;;5.25;100.00
36454;BME280;22478;51.740;-1.314;2023-11-19T03:11:45;99337.67;;;4.85;100.00
36454;BME280;22478;51.740;-1.314;2023-11-19T03:14:11;99334.98;;;4.96;100.00
36454;BME280;22478;51.740;-1.314;2023-11-19T03:16:39;99337.90;;;5.00;100.00
36454;BME280;22478;51.740;-1.314;2023-11-19T03:19:06;99320.57;;;5.44;100.00
36454;BME280;22478;51.740;-1.314;2023-11-19T03:21:33;99334.18;;;4.30;100.00
36454;BME280;22478;51.740;-1.314;2023-11-19T03:24:01;99329.15;;;3.16;100.00
36454;BME280;22478;51.740;-1.314;2023-11-19T03:26:28;99324.57;;;3.42;100.00
36454;BME280;22478;51.740;-1.314;2023-11-19T03:28:55;99319.05;;;4.37;100.00
36454;BME280;22478;51.740;-1.314;2023-11-19T03:31:22;99305.42;;;4.96;100.00
36454;BME280;22478;51.740;-1.314;2023-11-19T03:33:49;99318.62;;;3.04;100.00
36454;BME280;22478;51.740;-1.314;2023-11-19T03:36:16;99308.92;;;4.38;100.00
36454;BME280;22478;51.740;-1.314;2023-11-19T03:38:43;99307.34;;;4.39;100.00
36454;BME280;22478;51.740;-1.314;2023-11-19T03:41:10;99312.86;;;3.82;100.00
36454;BME280;22478;51.740;-1.314;2023-11-19T03:43:38;99298.17;;;4.58;100.00
36454;BME280;22478;51.740;-1.314;2023-11-19T03:46:16;99304.81;;;5.42;100.00
36454;BME280;22478;51.740;-1.314;2023-11-19T03:48:44;99305.58;;;5.06;100.00
36454;BME280;22478;51.740;-1.314;2023-11-19T03:51:11;99318.49;;;4.28;100.00
36454;BME280;22478;51.740;-1.314;2023-11-19T03:53:38;99313.35;;;3.53;100.00
36454;BME280;22478;51.740;-1.314;2023-11-19T03:56:07;99314.64;;;4.72;100.00
36454;BME280;22478;51.740;-1.314;2023-11-19T03:58:34;99316.90;;;4.01;100.00
36454;BME280;22478;51.740;-1.314;2023-11-19T04:01:02;99311.22;;;5.08;100.00
36454;BME280;22478;51.740;-1.314;2023-11-19T04:03:29;99315.54;;;4.33;100.00
36454;BME280;22478;51.740;-1.314;2023-11-19T04:05:56;99309.90;;;4.37;100.00
36454;BME280;22478;51.740;-1.314;2023-11-19T04:08:23;99307.02;;;5.52;100.00
36454;BME280;22478;51.740;-1.314;2023-11-19T04:10:51;99304.61;;;5.89;100.00
36454;BME280;22478;51.740;-1.314;2023-11-19T04:13:18;99325.50;;;5.55;100.00
36454;BME280;22478;51.740;-1.314;2023-11-19T04:15:45;99332.52;;;4.61;100.00
36454;BME280;22478;51.740;-1.314;2023-11-19T04:18:13;99337.13;;;3.87;100.00
36454;BME280;22478;51.740;-1.314;2023-11-19T04:20:40;99343.01;;;4.90;100.00
36454;BME280;22478;51.740;-1.314;2023-11-19T04:23:07;99338.92;;;5.02;100.00
36454;BME280;22478;51.740;-1.314;2023-11-19T04:25:35;99348.21;;;4.31;100.00
36454;BME280;22478;51.740;-1.314;2023-11-19T04:28:03;99347.38;;;3.41;100.00
36454;BME280;22478;51.740;-1.314;2023-11-19T04:30:30;99346.51;;;4.19;100.00
36454;BME280;22478;51.740;-1.314;2023-11-19T04:32:58;99358.84;;;4.51;100.00
36454;BME280;22478;51.740;-1.314;2023-11-19T04:35:25;99349.29;;;5.33;100.00
36454;BME280;22478;51.740;-1.314;2023-11-19T04:37:52;99344.74;;;6.26;100.00
36454;BME280;22478;51.740;-1.314;2023-11-19T04:40:19;99338.45;;;6.14;100.00
36454;BME280;22478;51.740;-1.314;2023-11-19T04:42:46;99341.89;;;6.44;100.00
36454;BME280;22478;51.740;-1.314;2023-11-19T04:45:13;99350.94;;;5.23;100.00
36454;BME280;22478;51.740;-1.314;2023-11-19T04:47:40;99353.71;;;4.22;100.00
36454;BME280;22478;51.740;-1.314;2023-11-19T04:50:07;99352.02;;;3.61;100.00
36454;BME280;22478;51.740;-1.314;2023-11-19T04:52:34;99359.80;;;4.36;100.00
36454;BME280;22478;51.740;-1.314;2023-11-19T04:55:05;99354.76;;;4.20;100.00
36454;BME280;22478;51.740;-1.314;2023-11-19T04:57:31;99354.66;;;4.43;100.00
36454;BME280;22478;51.740;-1.314;2023-11-19T04:59:59;99350.74;;;5.64;100.00
36454;BME280;22478;51.740;-1.314;2023-11-19T05:02:26;99345.97;;;3.29;100.00
36454;BME280;22478;51.740;-1.314;2023-11-19T05:04:53;99346.80;;;4.11;100.00
36454;BME280;22478;51.740;-1.314;2023-11-19T05:07:20;99335.84;;;5.24;100.00
36454;BME280;22478;51.740;-1.314;2023-11-19T05:09:47;99348.42;;;3.38;100.00
36454;BME280;22478;51.740;-1.314;2023-11-19T05:12:14;99349.46;;;3.61;100.00
36454;BME280;22478;51.740;-1.314;2023-11-19T05:14:41;99342.67;;;5.37;100.00
36454;BME280;22478;51.740;-1.314;2023-11-19T05:17:09;99344.82;;;3.46;100.00
36454;BME280;22478;51.740;-1.314;2023-11-19T05:19:36;99338.84;;;2.94;100.00
36454;BME280;22478;51.740;-1.314;2023-11-19T05:22:03;99341.50;;;3.22;100.00
36454;BME280;22478;51.740;-1.314;2023-11-19T05:24:31;99337.89;;;4.98;100.00
36454;BME280;22478;51.740;-1.314;2023-11-19T05:26:59;99336.90;;;4.42;100.00
36454;BME280;22478;51.740;-1.314;2023-11-19T05:29:26;99339.33;;;5.09;100.00
36454;BME280;22478;51.740;-1.314;2023-11-19T05:31:52;99336.72;;;4.08;100.00
36454;BME280;22478;51.740;-1.314;2023-11-19T05:34:20;99329.53;;;4.05;100.00
36454;BME280;22478;51.740;-1.314;2023-11-19T05:36:47;99335.35;;;4.49;100.00
36454;BME280;22478;51.740;-1.314;2023-11-19T05:39:14;99338.18;;;4.33;100.00
36454;BME280;22478;51.740;-1.314;2023-11-19T05:41:41;99342.07;;;3.98;100.00
36454;BME280;22478;51.740;-1.314;2023-11-19T05:44:09;99337.86;;;4.91;100.00
36454;BME280;22478;51.740;-1.314;2023-11-19T05:46:36;99330.64;;;4.89;100.00
36454;BME280;22478;51.740;-1.314;2023-11-19T05:49:03;99328.74;;;2.17;100.00
36454;BME280;22478;51.740;-1.314;2023-11-19T05:51:30;99333.88;;;3.39;100.00
36454;BME280;22478;51.740;-1.314;2023-11-19T05:53:57;99334.60;;;3.95;100.00
36454;BME280;22478;51.740;-1.314;2023-11-19T05:56:24;99336.19;;;3.44;100.00
36454;BME280;22478;51.740;-1.314;2023-11-19T05:58:50;99333.73;;;6.00;100.00
36454;BME280;22478;51.740;-1.314;2023-11-19T06:01:18;99325.40;;;5.01;100.00
36454;BME280;22478;51.740;-1.314;2023-11-19T06:03:45;99333.46;;;5.03;100.00
36454;BME280;22478;51.740;-1.314;2023-11-19T06:06:12;99333.24;;;4.17;100.00
36454;BME280;22478;51.740;-1.314;2023-11-19T06:08:39;99327.85;;;6.35;100.00
36454;BME280;22478;51.740;-1.314;2023-11-19T06:11:06;99337.89;;;5.11;100.00
36454;BME280;22478;51.740;-1.314;2023-11-19T06:13:34;99335.26;;;4.09;100.00
36454;BME280;22478;51.740;-1.314;2023-11-19T06:16:02;99338.35;;;4.18;100.00
36454;BME280;22478;51.740;-1.314;2023-11-19T06:18:29;99337.51;;;4.46;100.00
36454;BME280;22478;51.740;-1.314;2023-11-19T06:20:56;99329.11;;;5.03;100.00
36454;BME280;22478;51.740;-1.314;2023-11-19T06:23:23;99332.18;;;3.88;100.00
36454;BME280;22478;51.740;-1.314;2023-11-19T06:25:50;99323.20;;;6.73;100.00
36454;BME280;22478;51.740;-1.314;2023-11-19T06:28:17;99323.52;;;3.89;100.00
36454;BME280;22478;51.740;-1.314;2023-11-19T06:30:45;99325.13;;;5.81;100.00
36454;BME280;22478;51.740;-1.314;2023-11-19T06:33:13;99324.28;;;3.78;100.00
36454;BME280;22478;51.740;-1.314;2023-11-19T06:35:40;99315.90;;;5.52;100.00
36454;BME280;22478;51.740;-1.314;2023-11-19T06:38:07;99315.69;;;3.66;100.00
36454;BME280;22478;51.740;-1.314;2023-11-19T06:40:34;99314.04;;;4.60;100.00
36454;BME280;22478;51.740;-1.314;2023-11-19T06:43:02;99314.45;;;3.48;100.00
36454;BME280;22478;51.740;-1.314;2023-11-19T06:45:28;99311.36;;;3.59;100.00
36454;BME280;22478;51.740;-1.314;2023-11-19T06:47:56;99310.94;;;4.73;100.00
36454;BME280;22478;51.740;-1.314;2023-11-19T06:50:23;99319.60;;;3.92;100.00
36454;BME280;22478;51.740;-1.314;2023-11-19T06:52:50;99309.64;;;5.20;100.00
36454;BME280;22478;51.740;-1.314;2023-11-19T06:55:17;99318.86;;;5.22;100.00
36454;BME280;22478;51.740;-1.314;2023-11-19T06:57:44;99330.62;;;4.13;100.00
36454;BME280;22478;51.740;-1.314;2023-11-19T07:00:12;99325.68;;;4.74;100.00
36454;BME280;22478;51.740;-1.314;2023-11-19T07:02:40;99331.41;;;4.41;100.00
36454;BME280;22478;51.740;-1.314;2023-11-19T07:05:07;99330.02;;;6.09;100.00
36454;BME280;22478;51.740;-1.314;2023-11-19T07:07:34;99327.52;;;4.94;100.00
36454;BME280;22478;51.740;-1.314;2023-11-19T07:10:02;99325.36;;;6.82;100.00
36454;BME280;22478;51.740;-1.314;2023-11-19T07:12:29;99325.76;;;5.79;100.00
36454;BME280;22478;51.740;-1.314;2023-11-19T07:14:57;99322.27;;;3.50;100.00
36454;BME280;22478;51.740;-1.314;2023-11-19T07:17:24;99321.55;;;4.63;100.00
36454;BME280;22478;51.740;-1.314;2023-11-19T07:19:51;99321.29;;;3.76;100.00
36454;BME280;22478;51.740;-1.314;2023-11-19T07:22:18;99326.77;;;4.32;100.00
36454;BME280;22478;51.740;-1.314;2023-11-19T07:24:45;99324.80;;;5.73;100.00
36454;BME280;22478;51.740;-1.314;2023-11-19T07:27:12;99338.60;;;3.92;100.00
36454;BME280;22478;51.740;-1.314;2023-11-19T07:29:39;99338.16;;;3.80;100.00
36454;BME280;22478;51.740;-1.314;2023-11-19T07:32:06;99345.75;;;3.43;100.00
36454;BME280;22478;51.740;-1.314;2023-11-19T07:34:34;99360.29;;;3.51;100.00
36454;BME280;22478;51.740;-1.314;2023-11-19T07:37:02;99348.87;;;3.37;100.00
36454;BME280;22478;51.740;-1.314;2023-11-19T07:39:29;99344.29;;;3.87;100.00
36454;BME280;22478;51.740;-1.314;2023-11-19T07:41:57;99348.54;;;3.54;100.00
36454;BME280;22478;51.740;-1.314;2023-11-19T07:44:25;99350.78;;;2.82;100.00
36454;BME280;22478;51.740;-1.314;2023-11-19T07:46:52;99356.65;;;3.03;100.00
36454;BME280;22478;51.740;-1.314;2023-11-19T07:49:19;99347.14;;;4.21;100.00
36454;BME280;22478;51.740;-1.314;2023-11-19T07:51:46;99347.54;;;3.00;100.00
36454;BME280;22478;51.740;-1.314;2023-11-19T07:54:13;99350.36;;;3.96;100.00
36454;BME280;22478;51.740;-1.314;2023-11-19T07:56:40;99343.98;;;5.12;100.00
36454;BME280;22478;51.740;-1.314;2023-11-19T07:59:07;99350.94;;;4.14;100.00
36454;BME280;22478;51.740;-1.314;2023-11-19T08:01:34;99352.51;;;4.64;100.00
36454;BME280;22478;51.740;-1.314;2023-11-19T08:04:02;99348.15;;;5.66;100.00
36454;BME280;22478;51.740;-1.314;2023-11-19T08:06:29;99341.90;;;5.73;100.00
36454;BME280;22478;51.740;-1.314;2023-11-19T08:08:56;99338.02;;;5.65;100.00
36454;BME280;22478;51.740;-1.314;2023-11-19T08:11:23;99334.40;;;6.47;100.00
36454;BME280;22478;51.740;-1.314;2023-11-19T08:13:50;99340.26;;;7.39;100.00
36454;BME280;22478;51.740;-1.314;2023-11-19T08:16:17;99348.09;;;6.32;100.00
36454;BME280;22478;51.740;-1.314;2023-11-19T08:18:45;99348.66;;;5.26;100.00
36454;BME280;22478;51.740;-1.314;2023-11-19T08:21:12;99344.97;;;5.63;100.00
36454;BME280;22478;51.740;-1.314;2023-11-19T08:23:39;99341.66;;;5.62;100.00
36454;BME280;22478;51.740;-1.314;2023-11-19T08:26:07;99340.13;;;6.16;100.00
36454;BME280;22478;51.740;-1.314;2023-11-19T08:28:34;99345.72;;;3.16;100.00
36454;BME280;22478;51.740;-1.314;2023-11-19T08:31:02;99338.80;;;6.08;100.00
36454;BME280;22478;51.740;-1.314;2023-11-19T08:33:29;99344.30;;;6.15;100.00
36454;BME280;22478;51.740;-1.314;2023-11-19T08:35:56;99356.33;;;4.30;100.00
36454;BME280;22478;51.740;-1.314;2023-11-19T08:38:23;99354.50;;;2.89;100.00
36454;BME280;22478;51.740;-1.314;2023-11-19T08:40:51;99347.37;;;4.11;100.00
36454;BME280;22478;51.740;-1.314;2023-11-19T08:43:18;99351.62;;;4.32;100.00
36454;BME280;22478;51.740;-1.314;2023-11-19T08:45:45;99348.69;;;4.70;100.00
36454;BME280;22478;51.740;-1.314;2023-11-19T08:48:12;99345.39;;;4.84;100.00
36454;BME280;22478;51.740;-1.314;2023-11-19T08:50:40;99352.65;;;4.98;100.00
36454;BME280;22478;51.740;-1.314;2023-11-19T08:53:07;99350.13;;;4.52;100.00
36454;BME280;22478;51.740;-1.314;2023-11-19T08:55:34;99340.04;;;5.04;100.00
36454;BME280;22478;51.740;-1.314;2023-11-19T08:58:01;99336.48;;;5.57;100.00
36454;BME280;22478;51.740;-1.314;2023-11-19T09:00:29;99344.54;;;3.25;100.00
36454;BME280;22478;51.740;-1.314;2023-11-19T09:02:56;99322.89;;;5.69;100.00
36454;BME280;22478;51.740;-1.314;2023-11-19T09:05:23;99316.65;;;4.09;100.00
36454;BME280;22478;51.740;-1.314;2023-11-19T09:07:50;99303.28;;;5.55;100.00
36454;BME280;22478;51.740;-1.314;2023-11-19T09:10:17;99308.86;;;5.49;100.00
36454;BME280;22478;51.740;-1.314;2023-11-19T09:12:44;99300.21;;;4.82;100.00
36454;BME280;22478;51.740;-1.314;2023-11-19T09:15:10;99309.34;;;4.57;100.00
36454;BME280;22478;51.740;-1.314;2023-11-19T09:17:37;99313.93;;;3.85;100.00
36454;BME280;22478;51.740;-1.314;2023-11-19T09:20:06;99311.00;;;3.56;100.00
36454;BME280;22478;51.740;-1.314;2023-11-19T09:22:33;99307.08;;;5.44;100.00
36454;BME280;22478;51.740;-1.314;2023-11-19T09:25:01;99314.88;;;4.79;100.00
36454;BME280;22478;51.740;-1.314;2023-11-19T09:27:28;99308.15;;;4.45;100.00
36454;BME280;22478;51.740;-1.314;2023-11-19T09:29:55;99311.10;;;4.27;100.00
36454;BME280;22478;51.740;-1.314;2023-11-19T09:32:21;99302.25;;;4.87;100.00
36454;BME280;22478;51.740;-1.314;2023-11-19T09:34:48;99309.49;;;5.19;100.00
36454;BME280;22478;51.740;-1.314;2023-11-19T09:37:16;99312.20;;;4.68;100.00
36454;BME280;22478;51.740;-1.314;2023-11-19T09:39:43;99321.87;;;5.44;100.00
36454;BME280;22478;51.740;-1.314;2023-11-19T09:42:10;99319.49;;;5.93;100.00
36454;BME280;22478;51.740;-1.314;2023-11-19T09:44:38;99314.09;;;5.18;100.00
36454;BME280;22478;51.740;-1.314;2023-11-19T09:47:06;99318.98;;;5.77;100.00
36454;BME280;22478;51.740;-1.314;2023-11-19T09:49:35;99326.23;;;5.99;100.00
36454;BME280;22478;51.740;-1.314;2023-11-19T09:52:04;99331.02;;;3.82;100.00
36454;BME280;22478;51.740;-1.314;2023-11-19T09:54:31;99324.59;;;6.78;100.00
36454;BME280;22478;51.740;-1.314;2023-11-19T09:56:58;99325.80;;;6.57;100.00
36454;BME280;22478;51.740;-1.314;2023-11-19T09:59:26;99320.48;;;6.04;100.00
36454;BME280;22478;51.740;-1.314;2023-11-19T10:01:53;99326.81;;;5.50;100.00
36454;BME280;22478;51.740;-1.314;2023-11-19T10:04:21;99329.03;;;5.83;100.00
36454;BME280;22478;51.740;-1.314;2023-11-19T10:06:50;99326.08;;;6.75;100.00
36454;BME280;22478;51.740;-1.314;2023-11-19T10:09:17;99333.36;;;3.64;100.00
36454;BME280;22478;51.740;-1.314;2023-11-19T10:11:44;99327.20;;;5.86;100.00
36454;BME280;22478;51.740;-1.314;2023-11-19T10:14:11;99316.63;;;7.37;100.00
36454;BME280;22478;51.740;-1.314;2023-11-19T10:16:40;99322.58;;;6.20;100.00
36454;BME280;22478;51.740;-1.314;2023-11-19T10:19:12;99332.16;;;5.38;100.00
36454;BME280;22478;51.740;-1.314;2023-11-19T10:21:46;99328.63;;;4.66;100.00
36454;BME280;22478;51.740;-1.314;2023-11-19T10:24:13;99326.33;;;4.21;100.00
36454;BME280;22478;51.740;-1.314;2023-11-19T10:26:41;99319.97;;;6.36;100.00
36454;BME280;22478;51.740;-1.314;2023-11-19T10:29:08;99317.35;;;6.28;100.00
36454;BME280;22478;51.740;-1.314;2023-11-19T10:31:39;99314.74;;;5.86;100.00
36454;BME280;22478;51.740;-1.314;2023-11-19T10:34:24;99320.58;;;5.93;100.00
36454;BME280;22478;51.740;-1.314;2023-11-19T10:36:53;99312.59;;;5.28;100.00
36454;BME280;22478;51.740;-1.314;2023-11-19T10:39:51;99316.65;;;5.34;100.00
36454;BME280;22478;51.740;-1.314;2023-11-19T10:42:18;99316.58;;;5.73;100.00
36454;BME280;22478;51.740;-1.314;2023-11-19T10:44:46;99309.26;;;5.05;100.00
36454;BME280;22478;51.740;-1.314;2023-11-19T10:47:14;99315.72;;;5.35;100.00
36454;BME280;22478;51.740;-1.314;2023-11-19T10:49:41;99313.76;;;6.77;100.00
36454;BME280;22478;51.740;-1.314;2023-11-19T10:52:09;99311.34;;;5.42;100.00
36454;BME280;22478;51.740;-1.314;2023-11-19T10:54:37;99297.45;;;4.66;100.00
36454;BME280;22478;51.740;-1.314;2023-11-19T10:57:09;99311.72;;;4.72;100.00
36454;BME280;22478;51.740;-1.314;2023-11-19T10:59:37;99307.50;;;5.16;100.00
36454;BME280;22478;51.740;-1.314;2023-11-19T11:02:09;99305.86;;;6.62;100.00
36454;BME280;22478;51.740;-1.314;2023-11-19T11:04:41;99315.24;;;6.05;100.00
36454;BME280;22478;51.740;-1.314;2023-11-19T11:07:09;99301.84;;;6.63;100.00
36454;BME280;22478;51.740;-1.314;2023-11-19T11:09:36;99291.40;;;7.17;100.00
36454;BME280;22478;51.740;-1.314;2023-11-19T11:12:04;99298.56;;;6.25;100.00
36454;BME280;22478;51.740;-1.314;2023-11-19T11:14:34;99297.21;;;8.39;100.00
36454;BME280;22478;51.740;-1.314;2023-11-19T11:17:04;99306.07;;;4.60;100.00
36454;BME280;22478;51.740;-1.314;2023-11-19T11:19:33;99308.96;;;5.99;100.00
36454;BME280;22478;51.740;-1.314;2023-11-19T11:22:01;99315.74;;;6.47;100.00
36454;BME280;22478;51.740;-1.314;2023-11-19T11:24:45;99307.09;;;6.61;100.00
36454;BME280;22478;51.740;-1.314;2023-11-19T11:28:03;99308.78;;;5.25;100.00
36454;BME280;22478;51.740;-1.314;2023-11-19T11:30:44;99315.14;;;4.96;100.00
36454;BME280;22478;51.740;-1.314;2023-11-19T11:33:26;99308.07;;;5.75;100.00
36454;BME280;22478;51.740;-1.314;2023-11-19T11:36:07;99310.20;;;5.41;100.00
36454;BME280;22478;51.740;-1.314;2023-11-19T11:38:38;99300.65;;;5.20;100.00
36454;BME280;22478;51.740;-1.314;2023-11-19T11:41:24;99300.68;;;5.10;100.00
36454;BME280;22478;51.740;-1.314;2023-11-19T11:43:52;99287.50;;;7.22;100.00
36454;BME280;22478;51.740;-1.314;2023-11-19T11:47:24;99290.35;;;6.21;100.00
36454;BME280;22478;51.740;-1.314;2023-11-19T11:49:52;99273.83;;;7.68;100.00
36454;BME280;22478;51.740;-1.314;2023-11-19T11:52:21;99283.54;;;5.54;100.00
36454;BME280;22478;51.740;-1.314;2023-11-19T11:54:48;99285.29;;;5.45;100.00
36454;BME280;22478;51.740;-1.314;2023-11-19T11:57:16;99287.09;;;5.64;100.00
36454;BME280;22478;51.740;-1.314;2023-11-19T11:59:46;99291.80;;;5.18;100.00
36454;BME280;22478;51.740;-1.314;2023-11-19T12:02:14;99289.20;;;8.07;100.00
36454;BME280;22478;51.740;-1.314;2023-11-19T12:04:42;99299.25;;;5.37;100.00
36454;BME280;22478;51.740;-1.314;2023-11-19T12:07:12;99289.99;;;6.62;100.00
36454;BME280;22478;51.740;-1.314;2023-11-19T12:09:40;99298.62;;;5.26;100.00
36454;BME280;22478;51.740;-1.314;2023-11-19T12:12:17;99290.92;;;5.23;100.00
36454;BME280;22478;51.740;-1.314;2023-11-19T12:15:06;99289.58;;;4.98;100.00
36454;BME280;22478;51.740;-1.314;2023-11-19T12:17:42;99270.16;;;7.34;100.00
36454;BME280;22478;51.740;-1.314;2023-11-19T12:20:09;99285.67;;;5.47;100.00
36454;BME280;22478;51.740;-1.314;2023-11-19T12:22:37;99281.34;;;5.71;100.00
36454;BME280;22478;51.740;-1.314;2023-11-19T12:25:06;99282.38;;;4.41;100.00
36454;BME280;22478;51.740;-1.314;2023-11-19T12:27:33;99293.34;;;6.13;100.00
36454;BME280;22478;51.740;-1.314;2023-11-19T12:30:00;99285.94;;;5.52;100.00
36454;BME280;22478;51.740;-1.314;2023-11-19T12:32:37;99281.53;;;6.63;100.00
36454;BME280;22478;51.740;-1.314;2023-11-19T12:35:05;99266.79;;;6.62;100.00
36454;BME280;22478;51.740;-1.314;2023-11-19T12:37:32;99266.60;;;6.60;100.00
36454;BME280;22478;51.740;-1.314;2023-11-19T12:40:12;99262.77;;;7.14;100.00
36454;BME280;22478;51.740;-1.314;2023-11-19T12:42:39;99270.31;;;5.11;100.00
36454;BME280;22478;51.740;-1.314;2023-11-19T12:45:07;99260.37;;;6.04;100.00
36454;BME280;22478;51.740;-1.314;2023-11-19T12:47:34;99254.39;;;7.95;100.00
36454;BME280;22478;51.740;-1.314;2023-11-19T12:50:02;99249.22;;;6.97;100.00
36454;BME280;22478;51.740;-1.314;2023-11-19T12:52:29;99250.06;;;6.29;100.00
36454;BME280;22478;51.740;-1.314;2023-11-19T12:54:56;99249.46;;;6.53;100.00
36454;BME280;22478;51.740;-1.314;2023-11-19T12:57:36;99244.44;;;5.77;100.00